createdAt,value
2023-03-23T16:00:11.138Z,15.40
2023-03-23T16:02:38.184Z,15.20
2023-03-23T16:05:05.147Z,15.10
2023-03-23T16:07:31.767Z,15.10
2023-03-23T16:09:58.409Z,15.00
2023-03-23T16:12:25.438Z,15.00
2023-03-23T16:14:52.589Z,15.00
2023-03-23T16:17:20.076Z,15.10
2023-03-23T16:19:46.662Z,15.10
2023-03-23T16:22:13.280Z,15.20
2023-03-23T16:24:39.906Z,15.20
2023-03-23T16:27:06.550Z,15.20
2023-03-23T16:29:54.165Z,15.20
2023-03-23T16:32:19.799Z,15.20
2023-03-23T16:34:46.413Z,15.20
2023-03-23T16:37:13.346Z,15.10
2023-03-23T16:39:40.087Z,15.00
2023-03-23T16:42:06.731Z,15.00
2023-03-23T16:44:33.337Z,14.90
2023-03-23T16:47:00.243Z,14.90
2023-03-23T16:49:27.112Z,14.80
2023-03-23T16:51:53.824Z,14.80
2023-03-23T16:54:20.463Z,14.80
2023-03-23T16:56:48.956Z,14.80
2023-03-23T16:59:16.034Z,14.80
2023-03-23T17:01:43.233Z,14.70
2023-03-23T17:04:09.966Z,14.70
2023-03-23T17:06:36.655Z,14.50
2023-03-23T17:09:03.279Z,14.40
2023-03-23T17:11:29.873Z,14.30
2023-03-23T17:13:56.498Z,14.20
2023-03-23T17:16:23.322Z,14.00
2023-03-23T17:18:50.023Z,13.90
2023-03-23T17:21:16.659Z,13.80
2023-03-23T17:23:43.291Z,13.80
2023-03-23T17:26:09.902Z,13.70
2023-03-23T17:28:36.541Z,13.60
2023-03-23T17:31:03.200Z,13.60
2023-03-23T17:33:29.879Z,13.60
2023-03-23T17:35:56.503Z,13.50
2023-03-23T17:38:23.156Z,13.50
2023-03-23T17:40:56.932Z,13.40
2023-03-23T17:43:23.549Z,13.40
2023-03-23T17:45:50.346Z,13.40
2023-03-23T17:48:17.094Z,13.30
2023-03-23T17:50:47.519Z,13.30
2023-03-23T17:53:14.170Z,13.20
2023-03-23T17:55:43.107Z,13.20
2023-03-23T17:58:10.196Z,13.10
2023-03-23T18:00:37.559Z,13.10
2023-03-23T18:03:04.313Z,13.10
2023-03-23T18:05:31.943Z,13.10
2023-03-23T18:07:58.617Z,13.00
2023-03-23T18:10:25.686Z,13.00
2023-03-23T18:12:52.309Z,12.90
2023-03-23T18:15:18.948Z,12.90
2023-03-23T18:17:48.169Z,12.90
2023-03-23T18:20:14.964Z,12.80
2023-03-23T18:22:42.340Z,12.80
2023-03-23T18:25:08.990Z,12.80
2023-03-23T18:27:35.686Z,12.70
2023-03-23T18:30:03.062Z,12.70
2023-03-23T18:32:29.730Z,12.70
2023-03-23T18:34:56.412Z,12.70
2023-03-23T18:37:23.043Z,12.70
2023-03-23T18:39:49.673Z,12.70
2023-03-23T18:42:16.286Z,12.70
2023-03-23T18:44:42.976Z,12.70
2023-03-23T18:47:09.569Z,12.70
2023-03-23T18:49:36.204Z,12.70
2023-03-23T18:52:02.876Z,12.70
2023-03-23T18:54:29.543Z,12.70
2023-03-23T18:57:00.323Z,12.60
2023-03-23T18:59:30.572Z,12.60
2023-03-23T19:01:57.761Z,12.50
2023-03-23T19:04:24.526Z,12.50
2023-03-23T19:06:51.223Z,12.40
2023-03-23T19:09:18.884Z,12.40
2023-03-23T19:11:47.178Z,12.40
2023-03-23T19:14:13.857Z,12.40
2023-03-23T19:16:41.373Z,12.40
2023-03-23T19:19:10.721Z,12.30
2023-03-23T19:21:37.868Z,12.30
2023-03-23T19:24:07.221Z,12.20
2023-03-23T19:26:38.542Z,12.20
2023-03-23T19:29:25.980Z,12.20
2023-03-23T19:31:56.878Z,12.10
2023-03-23T19:34:24.539Z,12.10
2023-03-23T19:36:56.511Z,12.10
2023-03-23T19:39:30.915Z,12.10
2023-03-23T19:41:57.638Z,12.10
2023-03-23T19:44:24.463Z,12.00
2023-03-23T19:46:51.900Z,12.00
2023-03-23T19:49:18.568Z,12.00
2023-03-23T19:51:45.171Z,11.90
2023-03-23T19:54:13.068Z,11.90
2023-03-23T19:56:39.954Z,11.80
2023-03-23T19:59:09.526Z,11.80
2023-03-23T20:01:36.379Z,11.80
2023-03-23T20:04:05.251Z,11.70
2023-03-23T20:06:32.206Z,11.70
2023-03-23T20:09:00.030Z,11.70
2023-03-23T20:11:27.676Z,11.60
2023-03-23T20:13:55.194Z,11.60
2023-03-23T20:16:21.936Z,11.60
2023-03-23T20:18:49.962Z,11.60
2023-03-23T20:21:20.281Z,11.60
2023-03-23T20:23:47.403Z,11.50
2023-03-23T20:26:23.249Z,11.50
2023-03-23T20:28:50.163Z,11.50
2023-03-23T20:31:24.248Z,11.50
2023-03-23T20:34:00.143Z,11.50
2023-03-23T20:36:45.398Z,11.50
2023-03-23T20:39:21.087Z,11.50
2023-03-23T20:41:50.641Z,11.50
2023-03-23T20:44:17.916Z,11.50
2023-03-23T20:46:45.762Z,11.60
2023-03-23T20:49:12.992Z,11.60
2023-03-23T20:51:39.969Z,11.60
2023-03-23T20:54:06.606Z,11.60
2023-03-23T20:56:33.915Z,11.50
2023-03-23T20:59:01.654Z,11.60
2023-03-23T21:01:28.621Z,11.50
2023-03-23T21:03:56.911Z,11.50
2023-03-23T21:06:28.056Z,11.60
2023-03-23T21:08:54.985Z,11.60
2023-03-23T21:11:23.154Z,11.60
2023-03-23T21:13:50.627Z,11.60
2023-03-23T21:16:18.870Z,11.60
2023-03-23T21:18:45.974Z,11.60
2023-03-23T21:21:14.760Z,11.50
2023-03-23T21:23:46.619Z,11.50
2023-03-23T21:26:16.613Z,11.60
2023-03-23T21:28:44.148Z,11.50
2023-03-23T21:31:11.137Z,11.50
2023-03-23T21:33:37.737Z,11.50
2023-03-23T21:36:04.580Z,11.50
2023-03-23T21:38:31.492Z,11.60
2023-03-23T21:40:59.222Z,11.60
2023-03-23T21:43:27.139Z,11.60
2023-03-23T21:45:56.175Z,11.60
2023-03-23T21:48:23.753Z,11.60
2023-03-23T21:50:51.518Z,11.60
2023-03-23T21:53:18.312Z,11.60
2023-03-23T21:55:51.105Z,11.60
2023-03-23T21:58:21.888Z,11.60
2023-03-23T22:00:53.746Z,11.50
2023-03-23T22:03:24.062Z,11.50
2023-03-23T22:05:54.365Z,11.60
2023-03-23T22:08:22.328Z,11.50
2023-03-23T22:11:00.394Z,11.50
2023-03-23T22:13:29.175Z,11.50
2023-03-23T22:15:56.830Z,11.50
2023-03-23T22:18:23.488Z,11.50
2023-03-23T22:20:50.185Z,11.40
2023-03-23T22:23:17.159Z,11.40
2023-03-23T22:25:43.886Z,11.40
2023-03-23T22:28:10.508Z,11.40
2023-03-23T22:30:37.193Z,11.40
2023-03-23T22:33:03.850Z,11.40
2023-03-23T22:35:30.665Z,11.40
2023-03-23T22:37:57.296Z,11.50
2023-03-23T22:40:23.990Z,11.50
2023-03-23T22:42:51.509Z,11.50
2023-03-23T22:45:18.377Z,11.50
2023-03-23T22:47:45.306Z,11.50
2023-03-23T22:50:12.021Z,11.60
2023-03-23T22:52:38.731Z,11.70
2023-03-23T22:55:08.438Z,11.70
2023-03-23T22:57:35.467Z,11.70
2023-03-23T23:00:07.819Z,11.70
2023-03-23T23:02:34.739Z,11.70
2023-03-23T23:05:02.041Z,11.70
2023-03-23T23:07:28.643Z,11.70
2023-03-23T23:09:55.316Z,11.70
2023-03-23T23:12:22.207Z,11.70
2023-03-23T23:14:48.857Z,11.70
2023-03-23T23:17:15.460Z,11.70
2023-03-23T23:19:42.099Z,11.80
2023-03-23T23:22:18.458Z,11.80
2023-03-23T23:24:46.252Z,11.80
2023-03-23T23:27:13.141Z,11.90
2023-03-23T23:29:40.721Z,11.90
2023-03-23T23:32:08.438Z,12.00
2023-03-23T23:34:35.307Z,12.00
2023-03-23T23:37:02.168Z,12.00
2023-03-23T23:39:28.821Z,12.10
2023-03-23T23:41:55.774Z,12.10
2023-03-23T23:44:23.026Z,12.20
2023-03-23T23:46:49.669Z,12.20
2023-03-23T23:49:16.329Z,12.20
2023-03-23T23:51:44.863Z,12.20
2023-03-23T23:54:14.708Z,12.20
2023-03-23T23:56:41.376Z,12.20
2023-03-23T23:59:08.071Z,12.20
